Time;durP1;ratioP1;P1;durP2;ratioP2;P2;SDS_P1;SDS_P2;PMS_P1;PMS_P2;Temp;Humidity;BMP_temperature;BMP_pressure;BME280_temperature;BME280_humidity;BME280_pressure;Samples;Min_cycle;Max_cycle;Signal;HPM_P1;HPM_P2
2022/11/19 00:00:33;;;;;;;3.10;1.80;;;8.80;99.90;;;;;;5002810;28;20190;-70
2022/11/19 00:02:59;;;;;;;3.70;1.60;;;9.00;99.90;;;;;;5005126;28;20227;-67
2022/11/19 00:05:25;;;;;;;1.97;1.80;;;8.80;99.90;;;;;;5019106;28;21158;-68
2022/11/19 00:07:51;;;;;;;3.63;1.70;;;9.10;99.90;;;;;;5005229;28;20202;-68
2022/11/19 00:10:17;;;;;;;2.45;2.30;;;9.00;99.90;;;;;;5001050;28;20183;-68
2022/11/19 00:12:54;;;;;;;6.10;2.00;;;9.20;99.90;;;;;;4996147;28;20294;-68
2022/11/19 00:15:21;;;;;;;2.50;2.30;;;9.00;99.90;;;;;;5001529;28;20179;-69
2022/11/19 00:17:47;;;;;;;2.40;2.20;;;8.80;99.90;;;;;;4999885;28;20204;-68
2022/11/19 00:20:14;;;;;;;3.42;2.35;;;9.00;99.90;;;;;;4998446;28;20536;-68
2022/11/19 00:22:43;;;;;;;1.85;1.70;;;8.80;99.90;;;;;;4999646;28;20262;-68
2022/11/19 00:25:10;;;;;;;4.15;2.00;;;9.20;99.90;;;;;;5002123;28;20179;-69
2022/11/19 00:27:36;;;;;;;3.78;2.30;;;9.10;99.90;;;;;;5011747;28;20243;-68
2022/11/19 00:30:03;;;;;;;2.60;2.28;;;8.90;99.90;;;;;;4999302;28;20703;-68
2022/11/19 00:32:30;;;;;;;4.50;2.03;;;8.90;99.90;;;;;;4994138;28;20222;-68
2022/11/19 00:34:56;;;;;;;2.13;1.95;;;8.70;99.90;;;;;;4998640;28;20611;-69
2022/11/19 00:37:22;;;;;;;3.53;2.57;;;8.90;99.90;;;;;;4985019;28;20180;-69
2022/11/19 00:39:47;;;;;;;2.13;2.03;;;8.90;99.90;;;;;;4994053;28;20194;-70
2022/11/19 00:42:13;;;;;;;2.43;1.83;;;9.00;99.90;;;;;;4994712;28;20428;-68
2022/11/19 00:44:39;;;;;;;2.00;1.80;;;9.00;99.90;;;;;;4989851;28;20196;-68
2022/11/19 00:47:05;;;;;;;3.33;1.73;;;9.00;99.90;;;;;;4999075;28;20179;-68
2022/11/19 00:49:30;;;;;;;2.70;1.53;;;9.10;99.90;;;;;;5001627;28;20414;-69
2022/11/19 00:51:56;;;;;;;2.17;1.70;;;9.30;99.90;;;;;;4994103;28;20238;-68
2022/11/19 00:54:22;;;;;;;4.40;1.90;;;9.00;99.90;;;;;;4989794;28;20208;-68
2022/11/19 00:56:47;;;;;;;1.73;1.53;;;9.00;99.90;;;;;;4996885;28;20179;-69
2022/11/19 00:59:13;;;;;;;2.37;1.80;;;9.10;99.90;;;;;;4990702;28;20188;-69
2022/11/19 01:01:39;;;;;;;2.83;1.23;;;9.30;99.90;;;;;;4992120;28;20596;-71
2022/11/19 01:04:05;;;;;;;2.20;1.30;;;9.30;99.90;;;;;;4996362;28;20215;-69
2022/11/19 01:06:31;;;;;;;2.27;1.73;;;9.30;99.90;;;;;;5000529;28;20543;-69
2022/11/19 01:08:57;;;;;;;2.00;1.80;;;9.20;99.90;;;;;;5000314;28;20274;-69
2022/11/19 01:11:29;;;;;;;4.03;1.97;;;9.00;99.90;;;;;;5004231;28;20278;-69
2022/11/19 01:13:56;;;;;;;1.70;1.60;;;9.20;99.90;;;;;;4988225;28;20512;-69
2022/11/19 01:16:23;;;;;;;4.35;1.40;;;9.10;99.90;;;;;;4994904;28;21005;-68
2022/11/19 01:18:49;;;;;;;1.80;1.70;;;9.00;99.90;;;;;;5004986;28;20552;-69
2022/11/19 01:21:16;;;;;;;2.50;1.30;;;9.00;99.90;;;;;;4992651;28;20195;-69
2022/11/19 01:23:43;;;;;;;3.30;1.38;;;8.80;99.90;;;;;;4992779;28;20231;-70
2022/11/19 01:26:09;;;;;;;4.75;1.60;;;8.80;99.90;;;;;;5001283;28;20613;-69
2022/11/19 01:28:36;;;;;;;1.50;1.10;;;9.00;99.90;;;;;;5002259;28;20188;-68
2022/11/19 01:31:09;;;;;;;1.08;0.98;;;8.90;99.90;;;;;;5001820;28;20184;-68
2022/11/19 01:33:36;;;;;;;2.10;1.30;;;8.80;99.90;;;;;;4999265;28;20211;-69
2022/11/19 01:36:05;;;;;;;1.20;1.10;;;9.00;99.90;;;;;;4991456;28;20180;-70
2022/11/19 01:38:31;;;;;;;1.00;1.00;;;9.00;99.90;;;;;;4990904;28;20234;-68
2022/11/19 01:40:57;;;;;;;2.63;1.52;;;8.80;99.90;;;;;;5006064;28;20229;-69
2022/11/19 01:43:44;;;;;;;2.63;1.20;;;8.90;99.90;;;;;;4997181;28;20677;-69
2022/11/19 01:46:12;;;;;;;1.52;1.42;;;8.90;99.90;;;;;;5012868;28;20192;-68
2022/11/19 01:48:44;;;;;;;1.70;1.60;;;8.90;99.90;;;;;;5005474;28;20187;-68
2022/11/19 01:51:28;;;;;;;1.70;1.25;;;9.00;99.90;;;;;;4994078;28;20246;-68
2022/11/19 01:53:59;;;;;;;1.80;1.50;;;8.90;99.90;;;;;;4999297;28;20208;-68
2022/11/19 01:56:26;;;;;;;2.45;2.00;;;8.70;99.90;;;;;;5013774;28;20266;-68
2022/11/19 01:58:57;;;;;;;1.70;1.60;;;8.50;99.90;;;;;;4999063;28;20184;-68
2022/11/19 02:01:23;;;;;;;1.80;1.50;;;8.40;99.90;;;;;;4997408;28;20183;-69
2022/11/19 02:03:50;;;;;;;1.47;1.00;;;8.40;99.90;;;;;;5002211;28;20249;-68
2022/11/19 02:06:16;;;;;;;1.38;1.20;;;8.50;99.90;;;;;;4999893;28;20190;-68
2022/11/19 02:08:47;;;;;;;1.90;1.80;;;8.50;99.90;;;;;;4995040;28;20569;-68
2022/11/19 02:11:26;;;;;;;1.67;1.05;;;8.60;99.90;;;;;;5004912;28;20179;-68
2022/11/19 02:13:52;;;;;;;1.08;0.88;;;8.60;99.90;;;;;;5001638;28;20386;-68
2022/11/19 02:16:46;;;;;;;2.80;1.13;;;8.70;99.90;;;;;;4993082;28;20780;-68
2022/11/19 02:19:34;;;;;;;2.30;1.20;;;8.60;99.90;;;;;;4997176;28;20193;-68
2022/11/19 02:22:18;;;;;;;1.38;1.10;;;8.40;99.90;;;;;;4996778;28;20241;-69
2022/11/19 02:24:51;;;;;;;1.65;1.23;;;8.70;99.90;;;;;;5020168;28;20191;-69
2022/11/19 02:27:38;;;;;;;2.47;1.40;;;8.60;99.90;;;;;;4999466;28;20542;-68
2022/11/19 02:30:11;;;;;;;2.85;1.48;;;8.50;99.90;;;;;;4994064;28;20195;-67
2022/11/19 02:32:57;;;;;;;2.10;1.80;;;8.50;99.90;;;;;;4996808;28;20230;-68
2022/11/19 02:35:34;;;;;;;4.15;1.67;;;8.30;99.90;;;;;;4994209;28;20567;-68
2022/11/19 02:38:04;;;;;;;1.65;1.55;;;8.50;99.90;;;;;;5001739;28;20240;-69
2022/11/19 02:40:54;;;;;;;3.22;1.80;;;8.40;99.90;;;;;;4993115;28;20648;-68
2022/11/19 02:43:38;;;;;;;1.83;1.73;;;8.40;99.90;;;;;;4995672;28;20218;-68
2022/11/19 02:46:09;;;;;;;1.73;1.63;;;8.40;99.90;;;;;;4995611;28;20186;-68
2022/11/19 02:48:40;;;;;;;2.83;1.63;;;8.60;99.90;;;;;;4997654;28;20246;-69
2022/11/19 02:51:06;;;;;;;3.10;1.85;;;8.50;99.90;;;;;;4991509;28;20195;-69
2022/11/19 02:53:32;;;;;;;1.70;1.60;;;8.40;99.90;;;;;;4993854;28;20564;-68
2022/11/19 02:56:10;;;;;;;2.20;1.53;;;8.60;99.90;;;;;;4996489;28;20211;-68
2022/11/19 03:04:29;;;;;;;2.13;1.92;;;8.20;99.90;;;;;;4996252;28;20231;-69
2022/11/19 03:07:05;;;;;;;2.50;1.80;;;8.30;99.90;;;;;;4992914;28;20184;-69
2022/11/19 03:09:33;;;;;;;2.55;1.42;;;8.20;99.90;;;;;;4999417;28;20214;-69
2022/11/19 03:12:10;;;;;;;2.47;1.95;;;8.30;99.90;;;;;;5018146;28;20203;-68
2022/11/19 03:17:53;;;;;;;1.58;1.48;;;8.30;99.90;;;;;;4989217;28;20890;-68
2022/11/19 03:20:27;;;;;;;1.83;1.70;;;8.50;99.90;;;;;;4993264;28;20209;-68
2022/11/19 03:22:59;;;;;;;2.10;2.00;;;8.60;99.90;;;;;;5000156;28;20293;-68
2022/11/19 03:25:37;;;;;;;2.25;1.60;;;8.80;99.90;;;;;;4997117;28;20183;-69
2022/11/19 03:28:08;;;;;;;2.45;1.85;;;9.00;99.90;;;;;;4997201;28;20214;-68
2022/11/19 03:30:35;;;;;;;1.92;1.58;;;8.70;99.90;;;;;;5016191;28;20649;-68
2022/11/19 03:33:08;;;;;;;1.88;1.77;;;8.90;99.90;;;;;;4992388;28;20218;-68
2022/11/19 03:35:42;;;;;;;2.72;1.70;;;8.80;99.90;;;;;;4996231;28;20184;-68
2022/11/19 03:38:13;;;;;;;2.00;1.80;;;8.90;99.90;;;;;;4990412;28;20186;-68
2022/11/19 03:40:40;;;;;;;4.35;2.35;;;8.50;99.90;;;;;;4996561;28;20207;-68
2022/11/19 03:43:10;;;;;;;1.70;1.60;;;8.30;99.90;;;;;;4996059;28;20227;-69
2022/11/19 03:45:42;;;;;;;2.05;1.70;;;8.50;99.90;;;;;;4993891;28;20209;-68
2022/11/19 03:48:08;;;;;;;2.13;1.90;;;8.60;99.90;;;;;;4995106;28;20187;-69
2022/11/19 03:51:02;;;;;;;2.13;1.70;;;8.50;99.90;;;;;;4990853;28;20192;-68
2022/11/19 03:53:28;;;;;;;1.75;1.40;;;8.90;99.90;;;;;;4988451;28;20227;-68
2022/11/19 03:55:58;;;;;;;1.90;1.50;;;8.90;99.90;;;;;;4996792;28;20211;-68
2022/11/19 03:58:25;;;;;;;2.70;1.70;;;9.10;99.90;;;;;;4992985;28;20180;-68
2022/11/19 04:00:51;;;;;;;2.00;1.80;;;9.10;99.90;;;;;;4992560;28;20204;-68
2022/11/19 04:03:16;;;;;;;1.70;1.60;;;9.00;99.90;;;;;;4989736;28;20231;-68
2022/11/19 04:05:42;;;;;;;1.90;1.60;;;9.10;99.90;;;;;;4995734;28;20597;-69
2022/11/19 04:08:08;;;;;;;2.60;2.00;;;9.00;99.90;;;;;;5001254;28;20182;-69
2022/11/19 04:10:34;;;;;;;2.00;1.80;;;9.00;99.90;;;;;;5003012;28;20426;-69
2022/11/19 04:12:59;;;;;;;2.13;1.60;;;8.90;99.90;;;;;;4984107;28;20211;-70
2022/11/19 04:15:25;;;;;;;2.07;1.83;;;9.00;99.90;;;;;;4990906;28;20184;-67
2022/11/19 04:17:50;;;;;;;1.83;1.73;;;8.90;99.90;;;;;;4988775;28;20195;-71
2022/11/19 04:20:16;;;;;;;5.33;1.67;;;9.30;99.90;;;;;;4990311;28;20267;-71
2022/11/19 04:22:42;;;;;;;2.00;1.40;;;9.30;99.90;;;;;;4988262;28;20215;-69
2022/11/19 04:25:08;;;;;;;2.00;1.80;;;8.90;99.90;;;;;;4990883;28;20187;-69
2022/11/19 04:27:33;;;;;;;1.65;1.55;;;9.00;99.90;;;;;;4991916;28;20195;-68
2022/11/19 04:29:59;;;;;;;2.10;1.90;;;8.90;99.90;;;;;;4990761;28;20547;-68
2022/11/19 04:32:24;;;;;;;3.23;2.00;;;8.70;99.90;;;;;;4989069;28;20421;-67
2022/11/19 04:34:50;;;;;;;1.97;1.77;;;8.70;99.90;;;;;;4990017;28;20194;-69
2022/11/19 04:37:16;;;;;;;1.50;1.40;;;8.70;99.90;;;;;;4986669;28;20179;-68
2022/11/19 04:39:41;;;;;;;1.50;1.40;;;8.80;99.90;;;;;;4989805;28;20176;-71
2022/11/19 04:42:07;;;;;;;2.70;1.63;;;8.70;99.90;;;;;;5011129;28;20219;-67
2022/11/19 04:44:33;;;;;;;4.03;1.70;;;8.70;99.90;;;;;;4987999;28;20660;-67
2022/11/19 04:46:58;;;;;;;1.93;1.83;;;8.70;99.90;;;;;;4994235;28;20270;-69
2022/11/19 04:49:24;;;;;;;2.10;1.90;;;8.50;99.90;;;;;;4993544;28;20447;-71
2022/11/19 04:51:50;;;;;;;2.23;2.00;;;8.60;99.90;;;;;;4994974;28;20211;-72
2022/11/19 04:54:15;;;;;;;2.63;2.43;;;8.60;99.90;;;;;;4990660;28;20426;-72
2022/11/19 04:56:41;;;;;;;1.80;1.63;;;8.60;99.90;;;;;;4992481;28;20642;-68
2022/11/19 04:59:07;;;;;;;2.60;1.90;;;8.70;99.90;;;;;;4993605;28;20703;-73
2022/11/19 05:01:32;;;;;;;2.77;2.30;;;8.70;99.90;;;;;;4995000;28;20186;-67
2022/11/19 05:03:58;;;;;;;2.50;2.03;;;8.60;99.90;;;;;;4992498;28;20200;-73
2022/11/19 05:06:23;;;;;;;2.70;2.03;;;8.60;99.90;;;;;;4990543;28;20184;-74
2022/11/19 05:08:49;;;;;;;2.23;2.10;;;8.90;99.90;;;;;;4994882;28;20269;-73
2022/11/19 05:11:15;;;;;;;3.23;1.77;;;8.90;99.90;;;;;;4993034;28;20590;-73
2022/11/19 05:13:40;;;;;;;1.90;1.70;;;8.80;99.90;;;;;;4993548;28;20215;-76
2022/11/19 05:16:06;;;;;;;2.47;2.00;;;9.00;99.90;;;;;;4991858;28;20183;-73
2022/11/19 05:18:32;;;;;;;1.70;1.60;;;9.20;99.90;;;;;;4990737;28;20184;-76
2022/11/19 05:20:57;;;;;;;2.00;1.80;;;8.80;99.90;;;;;;4994996;28;20535;-73
2022/11/19 05:23:24;;;;;;;2.23;1.80;;;9.00;99.90;;;;;;4994228;28;20210;-72
2022/11/19 05:25:50;;;;;;;2.00;1.80;;;9.00;99.90;;;;;;4993355;28;20719;-73
2022/11/19 05:28:15;;;;;;;2.00;1.90;;;9.10;99.90;;;;;;4994290;28;20188;-73
2022/11/19 05:30:41;;;;;;;2.00;1.60;;;9.20;99.90;;;;;;4991765;28;20877;-73
2022/11/19 05:33:06;;;;;;;2.57;1.87;;;9.00;99.90;;;;;;4996904;28;20222;-73
2022/11/19 05:35:32;;;;;;;4.03;1.90;;;9.20;99.90;;;;;;4992146;28;20684;-75
2022/11/19 05:37:57;;;;;;;1.77;1.63;;;9.10;99.90;;;;;;4997717;28;20186;-75
2022/11/19 05:40:23;;;;;;;1.60;1.50;;;9.40;99.90;;;;;;5002162;28;20285;-71
2022/11/19 05:42:49;;;;;;;2.17;1.97;;;9.20;99.90;;;;;;4996899;28;20212;-69
2022/11/19 05:45:15;;;;;;;2.87;2.00;;;9.10;99.90;;;;;;5015462;28;20187;-63
2022/11/19 05:47:40;;;;;;;2.20;2.00;;;9.10;99.90;;;;;;5000174;28;20661;-66
2022/11/19 05:50:06;;;;;;;1.80;1.70;;;9.10;99.90;;;;;;4997376;28;20441;-65
2022/11/19 05:52:32;;;;;;;2.05;1.95;;;9.20;99.90;;;;;;4998139;28;20219;-66
2022/11/19 05:54:58;;;;;;;2.35;1.85;;;9.20;99.90;;;;;;4994671;28;20184;-66
2022/11/19 05:57:24;;;;;;;3.17;1.80;;;9.10;99.90;;;;;;4993448;28;20209;-64
2022/11/19 05:59:49;;;;;;;1.80;1.70;;;9.10;99.90;;;;;;4991211;28;20257;-62
2022/11/19 06:02:15;;;;;;;2.10;1.90;;;9.20;99.90;;;;;;4986992;28;20188;-63
2022/11/19 06:04:40;;;;;;;2.17;1.93;;;9.10;99.90;;;;;;4994019;28;20653;-67
2022/11/19 06:07:06;;;;;;;2.40;1.90;;;9.00;99.90;;;;;;4989880;28;20198;-69
2022/11/19 06:09:32;;;;;;;1.70;1.60;;;9.00;99.90;;;;;;4993417;28;20350;-69
2022/11/19 06:11:57;;;;;;;2.30;1.80;;;9.00;99.90;;;;;;5006616;28;20215;-67
2022/11/19 06:14:24;;;;;;;2.03;1.87;;;9.20;99.90;;;;;;4994744;28;20216;-69
2022/11/19 06:16:59;;;;;;;2.10;1.90;;;9.10;99.90;;;;;;5006826;28;20295;-64
2022/11/19 06:19:25;;;;;;;1.50;1.40;;;9.10;99.90;;;;;;4991803;28;20187;-65
2022/11/19 06:21:51;;;;;;;2.93;1.87;;;9.10;99.90;;;;;;4995172;28;20807;-69
2022/11/19 06:24:17;;;;;;;1.70;1.60;;;9.10;99.90;;;;;;4987958;28;20529;-66
2022/11/19 06:26:43;;;;;;;1.95;1.85;;;9.00;99.90;;;;;;4989699;28;20776;-67
2022/11/19 06:29:11;;;;;;;2.00;1.90;;;9.00;99.90;;;;;;4993139;28;20278;-67
2022/11/19 06:31:37;;;;;;;1.85;1.73;;;9.00;99.90;;;;;;4990616;28;20204;-69
2022/11/19 06:34:02;;;;;;;2.03;1.77;;;9.00;99.90;;;;;;4991265;28;20255;-68
2022/11/19 06:36:28;;;;;;;1.70;1.60;;;9.10;99.90;;;;;;4983995;28;20184;-70
2022/11/19 06:38:54;;;;;;;2.90;1.90;;;9.00;99.90;;;;;;4996558;28;20184;-67
2022/11/19 06:41:20;;;;;;;1.60;1.50;;;9.30;99.90;;;;;;4994138;28;20739;-64
2022/11/19 06:43:45;;;;;;;3.10;2.83;;;9.20;99.90;;;;;;4994580;28;20211;-64
2022/11/19 06:46:12;;;;;;;1.80;1.50;;;9.00;99.90;;;;;;4991485;28;20435;-67
2022/11/19 06:48:38;;;;;;;1.60;1.50;;;9.10;99.90;;;;;;4993861;28;20188;-65
2022/11/19 06:51:04;;;;;;;1.67;1.58;;;9.10;99.90;;;;;;4996373;28;20274;-65
2022/11/19 06:53:30;;;;;;;1.80;1.70;;;9.10;99.90;;;;;;4991514;28;20223;-66
2022/11/19 06:56:06;;;;;;;1.88;1.60;;;9.20;99.90;;;;;;4991782;28;20250;-70
2022/11/19 06:58:32;;;;;;;1.98;1.88;;;9.00;99.90;;;;;;4992646;28;20184;-69
2022/11/19 07:00:58;;;;;;;1.90;1.70;;;8.90;99.90;;;;;;4991062;28;20184;-67
2022/11/19 07:03:24;;;;;;;2.47;2.27;;;8.70;99.90;;;;;;4989431;28;20204;-64
2022/11/19 07:05:55;;;;;;;1.88;1.77;;;8.60;99.90;;;;;;4987227;28;20483;-70
2022/11/19 07:08:21;;;;;;;1.95;1.85;;;8.90;99.90;;;;;;4988025;28;20188;-69
2022/11/19 07:10:47;;;;;;;1.57;1.47;;;8.90;99.90;;;;;;4990115;28;20192;-70
2022/11/19 07:13:12;;;;;;;1.27;1.10;;;9.10;99.90;;;;;;4989664;28;20236;-71
2022/11/19 07:15:39;;;;;;;1.90;1.40;;;8.90;99.90;;;;;;4996883;28;20210;-70
2022/11/19 07:18:04;;;;;;;1.70;1.37;;;9.20;99.90;;;;;;4995452;28;20266;-70
2022/11/19 07:20:30;;;;;;;1.50;1.40;;;9.00;99.90;;;;;;4992378;28;20185;-70
2022/11/19 07:22:56;;;;;;;1.87;1.40;;;9.20;99.90;;;;;;4992315;28;20212;-70
2022/11/19 07:25:21;;;;;;;2.47;1.50;;;9.30;99.90;;;;;;4988953;28;20196;-67
2022/11/19 07:27:47;;;;;;;2.17;1.97;;;9.20;99.90;;;;;;4988590;28;20948;-68
2022/11/19 07:30:16;;;;;;;1.97;1.77;;;9.10;99.90;;;;;;4985160;28;20338;-69
2022/11/19 07:32:42;;;;;;;2.65;1.85;;;8.90;99.90;;;;;;4991994;28;20628;-68
2022/11/19 07:35:08;;;;;;;2.10;1.50;;;8.80;99.90;;;;;;5001040;28;20178;-68
2022/11/19 07:37:35;;;;;;;1.95;1.55;;;8.80;99.90;;;;;;4986954;28;20184;-68
2022/11/19 07:40:01;;;;;;;1.98;1.58;;;9.10;99.90;;;;;;5000485;28;20188;-68
2022/11/19 07:45:11;;;;;;;1.60;1.40;;;9.10;99.90;;;;;;4997714;28;20199;-68
2022/11/19 07:47:36;;;;;;;2.20;1.40;;;9.30;99.90;;;;;;4990357;28;20191;-69
2022/11/19 07:50:03;;;;;;;3.20;1.70;;;9.60;99.90;;;;;;4997555;28;20195;-70
2022/11/19 07:52:29;;;;;;;1.73;1.63;;;9.60;99.90;;;;;;4983998;28;20266;-68
2022/11/19 07:54:55;;;;;;;1.80;1.67;;;9.50;99.90;;;;;;4999691;28;20185;-68
2022/11/19 07:57:21;;;;;;;1.97;1.57;;;9.80;99.90;;;;;;4992283;28;20260;-68
2022/11/19 07:59:46;;;;;;;2.23;2.03;;;9.60;99.90;;;;;;4993820;28;20450;-68
2022/11/19 08:02:13;;;;;;;2.20;1.90;;;9.40;99.90;;;;;;5004568;28;20583;-67
2022/11/19 08:04:38;;;;;;;2.30;2.10;;;9.30;99.90;;;;;;4994231;28;20208;-67
2022/11/19 08:07:04;;;;;;;2.17;1.73;;;9.60;99.90;;;;;;4995116;28;20222;-67
2022/11/19 08:09:30;;;;;;;1.73;1.60;;;9.80;99.90;;;;;;5002247;28;20347;-67
2022/11/19 08:11:55;;;;;;;1.77;1.63;;;9.70;99.90;;;;;;5009391;28;20221;-69
2022/11/19 08:14:21;;;;;;;2.40;2.20;;;10.00;99.90;;;;;;4995805;28;20279;-68
2022/11/19 08:19:30;;;;;;;1.80;1.60;;;10.20;99.90;;;;;;4985023;28;20645;-67
2022/11/19 08:21:56;;;;;;;1.70;1.60;;;9.90;99.90;;;;;;4994407;28;20285;-69
2022/11/19 08:24:22;;;;;;;3.57;2.33;;;10.10;99.90;;;;;;5001204;28;20265;-67
2022/11/19 08:26:48;;;;;;;2.83;2.37;;;10.00;99.90;;;;;;4996276;28;20185;-68
2022/11/19 08:29:16;;;;;;;1.55;1.42;;;10.20;99.90;;;;;;4997076;28;20535;-67
2022/11/19 08:31:44;;;;;;;1.77;1.63;;;10.30;99.90;;;;;;4986629;28;20230;-67
2022/11/19 08:34:09;;;;;;;2.13;1.60;;;10.10;99.90;;;;;;4994876;28;20199;-67
2022/11/19 08:36:35;;;;;;;1.50;1.40;;;10.20;99.90;;;;;;4987656;28;20187;-68
2022/11/19 08:39:02;;;;;;;1.57;1.47;;;10.50;99.90;;;;;;4990090;28;20177;-69
2022/11/19 08:44:13;;;;;;;3.28;1.40;;;10.50;99.90;;;;;;4994774;28;20286;-66
2022/11/19 08:46:39;;;;;;;1.30;1.20;;;10.20;99.90;;;;;;4999353;28;20264;-68
2022/11/19 08:49:05;;;;;;;1.88;1.10;;;10.00;99.90;;;;;;4998906;28;20571;-68
2022/11/19 08:51:31;;;;;;;2.00;1.30;;;10.20;99.90;;;;;;4998126;28;20188;-68
2022/11/19 08:53:57;;;;;;;1.47;1.20;;;10.50;99.90;;;;;;4991584;28;20211;-68
2022/11/19 08:56:23;;;;;;;1.37;1.20;;;10.40;99.90;;;;;;4995091;28;20554;-68
2022/11/19 08:58:49;;;;;;;2.22;1.55;;;10.60;99.90;;;;;;4985859;28;20327;-68
2022/11/19 09:01:16;;;;;;;3.10;2.17;;;10.80;99.90;;;;;;4990057;28;20687;-67
2022/11/19 09:03:42;;;;;;;1.92;1.60;;;10.50;99.90;;;;;;4987848;28;20219;-66
2022/11/19 09:06:08;;;;;;;1.30;1.20;;;10.70;99.90;;;;;;4986834;28;20219;-67
2022/11/19 09:08:34;;;;;;;1.55;1.10;;;10.60;99.90;;;;;;4990539;28;20189;-67
2022/11/19 09:11:12;;;;;;;1.58;1.48;;;10.90;99.90;;;;;;4989612;28;20195;-67
2022/11/19 09:13:38;;;;;;;1.48;1.30;;;10.90;99.90;;;;;;4994396;28;20606;-67
2022/11/19 09:16:04;;;;;;;2.55;1.33;;;10.90;99.90;;;;;;4983617;28;20311;-66
2022/11/19 09:18:31;;;;;;;1.60;1.30;;;11.00;99.90;;;;;;4988072;28;20265;-66
2022/11/19 09:20:57;;;;;;;1.60;1.20;;;10.90;99.90;;;;;;4986984;28;20279;-65
2022/11/19 09:23:24;;;;;;;7.13;1.60;;;11.40;99.90;;;;;;4990316;28;20531;-66
2022/11/19 09:25:57;;;;;;;2.53;1.40;;;11.10;99.90;;;;;;4988839;28;20757;-66
2022/11/19 09:28:23;;;;;;;1.30;1.20;;;11.10;99.90;;;;;;4995869;28;20192;-66
2022/11/19 09:31:00;;;;;;;2.15;1.60;;;11.30;99.90;;;;;;4989879;28;20185;-66
2022/11/19 09:33:28;;;;;;;1.80;1.20;;;11.10;99.90;;;;;;4994916;28;20236;-66
2022/11/19 09:35:53;;;;;;;2.75;1.30;;;11.20;99.90;;;;;;5001336;28;20225;-72
2022/11/19 09:38:19;;;;;;;1.90;1.37;;;11.50;99.90;;;;;;4995051;28;20225;-68
2022/11/19 09:40:48;;;;;;;1.20;1.10;;;11.30;99.90;;;;;;4995193;28;20185;-67
2022/11/19 09:43:32;;;;;;;1.40;1.30;;;11.20;99.90;;;;;;4987055;28;20539;-67
2022/11/19 09:46:05;;;;;;;2.30;1.40;;;11.50;99.90;;;;;;4997031;28;20716;-69
2022/11/19 09:48:38;;;;;;;1.77;1.67;;;11.20;99.90;;;;;;5004407;28;20193;-68
2022/11/19 09:51:09;;;;;;;1.20;1.10;;;11.30;99.90;;;;;;4994816;28;20185;-68
2022/11/19 09:53:41;;;;;;;1.50;1.40;;;11.30;99.90;;;;;;5004646;28;20212;-68
2022/11/19 09:56:14;;;;;;;2.05;1.40;;;11.00;99.90;;;;;;4989101;28;20181;-68
2022/11/19 09:58:42;;;;;;;1.70;1.02;;;10.90;99.90;;;;;;5000937;28;20181;-68
2022/11/19 10:01:17;;;;;;;1.42;1.33;;;11.00;99.90;;;;;;4998377;28;20270;-68
2022/11/19 10:03:51;;;;;;;2.08;1.40;;;11.20;99.90;;;;;;4994470;28;20204;-67
2022/11/19 10:06:34;;;;;;;1.30;1.20;;;11.00;99.90;;;;;;4998437;28;20189;-68
2022/11/19 10:09:03;;;;;;;4.50;1.70;;;10.80;99.90;;;;;;4997187;28;20281;-66
2022/11/19 10:11:50;;;;;;;1.52;1.33;;;10.80;99.90;;;;;;5004603;28;20239;-67
2022/11/19 10:14:31;;;;;;;1.20;1.10;;;11.00;99.90;;;;;;4992729;28;20213;-68
2022/11/19 10:17:08;;;;;;;3.28;1.85;;;11.00;99.90;;;;;;5006344;28;20188;-68
2022/11/19 10:19:34;;;;;;;2.63;1.33;;;10.90;99.90;;;;;;4986514;28;20590;-67
2022/11/19 10:22:41;;;;;;;2.20;1.47;;;11.20;99.90;;;;;;4993457;28;20205;-66
2022/11/19 10:25:10;;;;;;;4.35;3.50;;;11.10;99.90;;;;;;4991166;28;20243;-67
2022/11/19 10:27:45;;;;;;;2.38;2.17;;;11.20;99.90;;;;;;4999378;28;20651;-68
2022/11/19 10:30:21;;;;;;;2.10;1.90;;;11.20;99.90;;;;;;4993458;28;20185;-68
2022/11/19 10:32:58;;;;;;;2.10;1.60;;;11.50;99.90;;;;;;4999732;28;20229;-68
2022/11/19 10:35:37;;;;;;;2.03;1.75;;;11.70;99.90;;;;;;4997410;28;20193;-68
2022/11/19 10:38:09;;;;;;;1.45;1.25;;;11.70;99.90;;;;;;4995349;28;20655;-68
2022/11/19 10:40:45;;;;;;;1.45;1.20;;;11.60;99.90;;;;;;4993776;28;20702;-67
2022/11/19 10:43:45;;;;;;;2.03;1.30;;;11.60;99.90;;;;;;4992778;28;20204;-68
2022/11/19 10:46:13;;;;;;;2.13;1.70;;;11.50;99.90;;;;;;4989744;28;20196;-68
2022/11/19 10:48:43;;;;;;;2.20;1.60;;;11.60;99.90;;;;;;5001171;28;20195;-68
2022/11/19 10:51:29;;;;;;;1.25;1.00;;;11.60;99.90;;;;;;4994858;28;20318;-68
2022/11/19 10:53:56;;;;;;;1.40;1.30;;;11.80;99.90;;;;;;4997458;28;20257;-67
2022/11/19 10:56:30;;;;;;;1.85;1.70;;;11.70;99.90;;;;;;4996855;28;20691;-69
2022/11/19 10:59:10;;;;;;;2.35;2.15;;;11.70;99.90;;;;;;4991086;28;20561;-68
2022/11/19 11:01:39;;;;;;;1.92;1.40;;;11.50;99.90;;;;;;4992329;28;20178;-69
2022/11/19 11:04:17;;;;;;;1.48;1.35;;;11.60;99.90;;;;;;4999525;28;20257;-69
2022/11/19 11:06:54;;;;;;;1.88;1.77;;;11.40;99.90;;;;;;4988669;28;20185;-69
2022/11/19 11:09:37;;;;;;;1.85;1.40;;;11.40;99.90;;;;;;4999388;28;20202;-69
2022/11/19 11:15:21;;;;;;;1.70;1.60;;;11.50;99.90;;;;;;4988336;28;20646;-68
2022/11/19 11:17:59;;;;;;;3.45;1.70;;;11.40;99.90;;;;;;5005753;28;20214;-69
2022/11/19 11:20:27;;;;;;;1.40;1.30;;;11.50;99.90;;;;;;4990735;28;20587;-69
2022/11/19 11:23:08;;;;;;;2.58;1.40;;;11.40;99.90;;;;;;4999419;28;20222;-69
2022/11/19 11:25:33;;;;;;;1.40;1.30;;;11.50;99.90;;;;;;4994722;28;20277;-68
2022/11/19 11:28:14;;;;;;;2.47;1.27;;;11.50;99.90;;;;;;5001269;28;20236;-68
2022/11/19 11:30:57;;;;;;;1.73;1.20;;;11.50;99.90;;;;;;4996141;28;20639;-68
2022/11/19 11:33:23;;;;;;;3.15;1.10;;;11.30;99.90;;;;;;5005624;28;20221;-67
2022/11/19 11:35:50;;;;;;;0.90;0.90;;;11.40;99.90;;;;;;4995184;28;20183;-68
2022/11/19 11:38:21;;;;;;;1.40;1.30;;;11.50;99.90;;;;;;5017305;28;20207;-67
2022/11/19 11:41:03;;;;;;;2.45;1.02;;;11.50;99.90;;;;;;5006902;28;20611;-69
2022/11/19 11:43:30;;;;;;;4.03;1.20;;;11.20;99.90;;;;;;5003648;28;20217;-68
2022/11/19 11:45:58;;;;;;;1.27;1.10;;;11.10;99.90;;;;;;4984534;28;20189;-68
2022/11/19 11:48:24;;;;;;;1.38;1.25;;;11.20;99.90;;;;;;4987689;28;20209;-65
2022/11/19 11:50:50;;;;;;;2.17;1.80;;;11.40;99.90;;;;;;4987716;28;20190;-62
2022/11/19 11:53:26;;;;;;;3.53;1.50;;;11.40;99.90;;;;;;4995543;28;20244;-60
2022/11/19 11:55:57;;;;;;;2.38;1.20;;;11.50;99.90;;;;;;4989186;28;20278;-63
2022/11/19 11:58:22;;;;;;;2.45;1.55;;;11.00;99.90;;;;;;4990649;28;20173;-60
2022/11/19 12:00:48;;;;;;;1.80;1.70;;;11.30;99.90;;;;;;4990367;28;20192;-68
2022/11/19 12:03:17;;;;;;;1.53;1.33;;;11.10;99.90;;;;;;4984480;28;20284;-67
2022/11/19 12:06:04;;;;;;;1.98;1.40;;;11.10;99.90;;;;;;4984677;28;20182;-67
2022/11/19 12:09:06;;;;;;;4.05;1.40;;;11.00;99.90;;;;;;4982997;28;20271;-67
2022/11/19 12:11:53;;;;;;;1.35;1.25;;;11.20;99.90;;;;;;4984780;28;20193;-67
2022/11/19 12:14:32;;;;;;;1.35;1.13;;;10.80;99.90;;;;;;4977885;28;20227;-67
2022/11/19 12:17:01;;;;;;;2.65;1.50;;;10.90;99.90;;;;;;4995981;28;20649;-67
2022/11/19 12:19:32;;;;;;;2.75;1.65;;;11.00;99.90;;;;;;4997616;28;20188;-67
2022/11/19 12:22:20;;;;;;;2.35;1.83;;;11.10;99.90;;;;;;4991722;28;20534;-67
2022/11/19 12:24:57;;;;;;;2.22;1.90;;;11.00;99.90;;;;;;4986785;28;20188;-68
2022/11/19 12:27:48;;;;;;;1.35;1.25;;;11.00;99.90;;;;;;4986450;28;20220;-67
2022/11/19 12:30:17;;;;;;;1.73;1.20;;;11.20;99.90;;;;;;4988429;28;20194;-66
2022/11/19 12:33:12;;;;;;;1.70;1.60;;;11.40;99.90;;;;;;4991858;28;20239;-67
2022/11/19 12:35:41;;;;;;;1.45;1.30;;;11.40;99.90;;;;;;4991438;28;20193;-66
2022/11/19 12:38:10;;;;;;;1.40;1.30;;;11.20;99.90;;;;;;4993505;28;20209;-66
2022/11/19 12:40:42;;;;;;;1.90;1.73;;;11.20;99.90;;;;;;4990642;28;20647;-68
2022/11/19 12:43:27;;;;;;;2.05;1.63;;;11.40;99.90;;;;;;4993180;28;20323;-67
2022/11/19 12:46:19;;;;;;;1.23;1.10;;;11.30;99.90;;;;;;4987503;28;20338;-67
2022/11/19 12:49:10;;;;;;;2.25;1.35;;;11.20;99.90;;;;;;4989267;28;20184;-66
2022/11/19 12:52:08;;;;;;;2.25;1.48;;;11.40;99.90;;;;;;4980718;28;20215;-68
2022/11/19 12:54:34;;;;;;;1.38;1.20;;;11.10;99.90;;;;;;4984999;28;20662;-67
2022/11/19 12:56:59;;;;;;;2.47;1.50;;;11.20;99.90;;;;;;4988014;28;20186;-67
2022/11/19 12:59:34;;;;;;;3.10;1.40;;;11.00;99.90;;;;;;4988118;28;20193;-67
2022/11/19 13:02:06;;;;;;;2.35;1.30;;;10.90;99.90;;;;;;4987835;28;20267;-68
2022/11/19 13:04:41;;;;;;;1.85;1.50;;;10.90;99.90;;;;;;4992287;28;20215;-68
2022/11/19 13:07:21;;;;;;;1.52;1.42;;;10.70;99.90;;;;;;4993918;28;20246;-67
2022/11/19 13:09:53;;;;;;;2.03;1.27;;;10.60;99.90;;;;;;4992615;28;20216;-67
2022/11/19 13:12:25;;;;;;;1.40;1.30;;;10.60;99.90;;;;;;4992105;28;20222;-69
2022/11/19 13:15:02;;;;;;;1.70;1.60;;;10.50;99.90;;;;;;4987393;28;20181;-72
2022/11/19 13:17:37;;;;;;;1.83;1.20;;;10.60;99.90;;;;;;4992393;28;20206;-72
2022/11/19 13:20:27;;;;;;;2.83;1.25;;;10.70;99.90;;;;;;4987829;28;20215;-69
2022/11/19 13:23:01;;;;;;;3.75;1.90;;;11.00;99.90;;;;;;4991534;28;20221;-67
2022/11/19 13:25:37;;;;;;;1.85;1.73;;;10.70;99.90;;;;;;4989779;28;20188;-66
2022/11/19 13:28:13;;;;;;;1.52;1.42;;;10.60;99.90;;;;;;4984255;28;20187;-64